createdAt,value
2022-10-13T00:00:47.428Z,101126.03
2022-10-13T00:03:14.943Z,101130.41
2022-10-13T00:05:43.731Z,101121.75
2022-10-13T00:08:11.661Z,101114.75
2022-10-13T00:10:40.349Z,101132.44
2022-10-13T00:13:08.903Z,101119.47
2022-10-13T00:15:40.306Z,101132.69
2022-10-13T00:18:07.632Z,101134.50
2022-10-13T00:20:35.565Z,101133.63
2022-10-13T00:23:02.417Z,101128.38
2022-10-13T00:25:29.337Z,101136.34
2022-10-13T00:27:56.191Z,101132.16
2022-10-13T00:30:23.067Z,101132.16
2022-10-13T00:32:49.916Z,101139.34
2022-10-13T00:35:16.795Z,101139.41
2022-10-13T00:37:43.621Z,101139.41
2022-10-13T00:40:11.108Z,101142.13
2022-10-13T00:42:41.478Z,101140.41
2022-10-13T00:45:29.725Z,101136.97
2022-10-13T00:47:59.572Z,101144.16
2022-10-13T00:50:33.890Z,101144.22
2022-10-13T00:53:02.083Z,101144.28
2022-10-13T00:55:32.310Z,101144.28
2022-10-13T00:58:05.216Z,101142.56
2022-10-13T01:00:33.554Z,101139.06
2022-10-13T01:03:01.655Z,101144.44
2022-10-13T01:05:29.914Z,101142.81
2022-10-13T01:07:58.510Z,101142.91
2022-10-13T01:10:36.495Z,101146.50
2022-10-13T01:13:17.379Z,101147.50
2022-10-13T01:15:59.964Z,101153.66
2022-10-13T01:18:51.603Z,101159.88
2022-10-13T01:21:21.402Z,101159.00
2022-10-13T01:24:25.940Z,101158.34
2022-10-13T01:27:20.377Z,101152.09
2022-10-13T01:30:07.737Z,101142.66
2022-10-13T01:32:53.425Z,101144.38
2022-10-13T01:35:43.447Z,101138.31
2022-10-13T01:38:37.035Z,101142.75
2022-10-13T01:41:37.538Z,101145.41
2022-10-13T01:44:26.303Z,101147.19
2022-10-13T01:46:54.858Z,101154.41
2022-10-13T01:49:27.799Z,101148.28
2022-10-13T01:51:57.159Z,101159.91
2022-10-13T01:54:23.956Z,101150.22
2022-10-13T01:56:55.125Z,101153.75
2022-10-13T01:59:22.872Z,101147.66
2022-10-13T02:02:08.357Z,101150.38
2022-10-13T02:05:08.233Z,101158.31
2022-10-13T02:07:46.346Z,101150.47
2022-10-13T02:10:44.671Z,101151.31
2022-10-13T02:13:14.857Z,101150.53
2022-10-13T02:15:46.515Z,101148.03
2022-10-13T02:18:17.352Z,101152.41
2022-10-13T02:20:46.233Z,101145.34
2022-10-13T02:23:19.062Z,101150.53
2022-10-13T02:25:47.902Z,101151.50
2022-10-13T02:28:15.932Z,101149.75
2022-10-13T02:30:45.025Z,101144.47
2022-10-13T02:33:13.492Z,101136.53
2022-10-13T02:35:41.059Z,101142.69
2022-10-13T02:38:08.030Z,101142.75
2022-10-13T02:40:34.948Z,101139.22
2022-10-13T02:43:01.751Z,101141.06
2022-10-13T02:45:28.658Z,101134.91
2022-10-13T02:47:55.876Z,101141.19
2022-10-13T02:50:22.669Z,101129.75
2022-10-13T02:52:49.513Z,101126.34
2022-10-13T02:55:16.376Z,101120.94
2022-10-13T02:57:43.250Z,101112.25
2022-10-13T03:00:10.629Z,101110.50
2022-10-13T03:02:37.523Z,101112.34
2022-10-13T03:05:04.821Z,101117.78
2022-10-13T03:07:31.751Z,101115.97
2022-10-13T03:09:58.578Z,101121.25
2022-10-13T03:12:25.410Z,101116.91
2022-10-13T03:14:52.241Z,101118.78
2022-10-13T03:17:19.087Z,101118.84
2022-10-13T03:19:46.000Z,101121.59
2022-10-13T03:22:15.627Z,101126.94
2022-10-13T03:24:43.161Z,101117.31
2022-10-13T03:27:10.044Z,101127.03
2022-10-13T03:29:36.930Z,101130.69
2022-10-13T03:32:03.993Z,101128.91
2022-10-13T03:34:30.823Z,101128.91
2022-10-13T03:36:58.072Z,101139.47
2022-10-13T03:39:25.143Z,101135.88
2022-10-13T03:41:52.063Z,101140.56
2022-10-13T03:44:18.841Z,101155.50
2022-10-13T03:46:45.723Z,101150.22
2022-10-13T03:49:12.730Z,101146.78
2022-10-13T03:51:39.787Z,101141.50
2022-10-13T03:54:06.628Z,101139.00
2022-10-13T03:56:33.467Z,101137.13
2022-10-13T03:59:01.137Z,101132.84
2022-10-13T04:01:30.526Z,101135.56
2022-10-13T04:03:58.606Z,101131.97
2022-10-13T04:06:26.825Z,101129.44
2022-10-13T04:08:54.254Z,101128.56
2022-10-13T04:11:21.853Z,101127.78
2022-10-13T04:13:48.735Z,101124.44
2022-10-13T04:16:21.898Z,101123.56
2022-10-13T04:18:54.692Z,101122.72
2022-10-13T04:21:22.892Z,101115.63
2022-10-13T04:23:50.393Z,101120.06
2022-10-13T04:26:20.641Z,101125.44
2022-10-13T04:28:49.280Z,101116.56
2022-10-13T04:31:16.803Z,101114.84
2022-10-13T04:33:44.599Z,101109.63
2022-10-13T04:36:13.414Z,101109.63
2022-10-13T04:38:41.069Z,101101.88
2022-10-13T04:41:09.293Z,101108.94
2022-10-13T04:43:36.740Z,101104.56
2022-10-13T04:46:09.033Z,101108.13
2022-10-13T04:48:35.920Z,101102.84
2022-10-13T04:51:09.228Z,101113.59
2022-10-13T04:53:37.083Z,101113.59
2022-10-13T04:56:06.389Z,101117.16
2022-10-13T04:58:33.189Z,101106.59
2022-10-13T05:01:00.117Z,101118.19
2022-10-13T05:03:27.507Z,101114.66
2022-10-13T05:05:54.809Z,101105.03
2022-10-13T05:08:21.930Z,101106.72
2022-10-13T05:11:00.576Z,101111.25
2022-10-13T05:13:28.928Z,101099.91
2022-10-13T05:15:56.623Z,101100.72
2022-10-13T05:18:24.719Z,101095.44
2022-10-13T05:20:51.606Z,101097.03
2022-10-13T05:23:18.562Z,101104.09
2022-10-13T05:25:45.380Z,101103.94
2022-10-13T05:28:12.252Z,101105.66
2022-10-13T05:30:39.557Z,101105.59
2022-10-13T05:33:06.364Z,101113.44
2022-10-13T05:35:33.206Z,101107.16
2022-10-13T05:37:59.991Z,101102.69
2022-10-13T05:40:26.879Z,101102.56
2022-10-13T05:42:53.867Z,101101.63
2022-10-13T05:45:22.104Z,101105.16
2022-10-13T05:47:49.003Z,101098.28
2022-10-13T05:50:15.981Z,101097.41
2022-10-13T05:52:43.623Z,101093.94
2022-10-13T05:55:13.589Z,101085.06
2022-10-13T05:57:48.723Z,101096.59
2022-10-13T06:00:18.136Z,101103.66
2022-10-13T06:03:03.613Z,101109.72
2022-10-13T06:05:33.061Z,101115.00
2022-10-13T06:08:00.604Z,101110.63
2022-10-13T06:10:27.766Z,101109.84
2022-10-13T06:12:54.605Z,101113.28
2022-10-13T06:15:25.647Z,101103.56
2022-10-13T06:17:54.849Z,101093.75
2022-10-13T06:20:21.875Z,101092.84
2022-10-13T06:22:50.557Z,101086.69
2022-10-13T06:25:17.654Z,101076.72
2022-10-13T06:27:44.598Z,101079.91
2022-10-13T06:30:11.980Z,101084.56
2022-10-13T06:32:38.869Z,101085.53
2022-10-13T06:35:06.556Z,101078.31
2022-10-13T06:37:33.391Z,101068.88
2022-10-13T06:40:00.212Z,101079.19
2022-10-13T06:42:27.069Z,101092.16
2022-10-13T06:44:53.939Z,101091.25
2022-10-13T06:47:20.807Z,101097.31
2022-10-13T06:49:47.752Z,101088.59
2022-10-13T06:52:14.610Z,101089.47
2022-10-13T06:54:41.476Z,101097.31
2022-10-13T06:57:08.447Z,101092.03
2022-10-13T06:59:35.249Z,101097.31
2022-10-13T07:02:02.280Z,101091.25
2022-10-13T07:04:29.291Z,101077.16
2022-10-13T07:06:56.330Z,101066.59
2022-10-13T07:09:23.206Z,101073.59
2022-10-13T07:11:50.581Z,101069.19
2022-10-13T07:14:17.434Z,101078.03
2022-10-13T07:16:44.432Z,101069.22
2022-10-13T07:19:11.469Z,101065.72
2022-10-13T07:21:38.447Z,101064.03
2022-10-13T07:24:05.747Z,101065.72
2022-10-13T07:26:34.159Z,101060.44
2022-10-13T07:29:01.205Z,101052.59
2022-10-13T07:31:28.367Z,101050.81
2022-10-13T07:33:57.301Z,101057.88
2022-10-13T07:36:24.333Z,101059.66
2022-10-13T07:38:51.317Z,101057.97
2022-10-13T07:41:18.356Z,101061.53
2022-10-13T07:43:45.568Z,101069.47
2022-10-13T07:46:14.088Z,101065.03
2022-10-13T07:48:41.372Z,101065.72
2022-10-13T07:51:11.557Z,101068.47
2022-10-13T07:53:39.346Z,101070.19
2022-10-13T07:56:09.120Z,101062.16
2022-10-13T07:58:41.011Z,101059.44
2022-10-13T08:01:08.623Z,101057.75
2022-10-13T08:06:23.748Z,101056.59
2022-10-13T08:08:50.812Z,101062.66
2022-10-13T08:11:18.203Z,101056.31
2022-10-13T08:13:53.107Z,101070.31
2022-10-13T08:16:20.363Z,101059.75
2022-10-13T08:18:48.540Z,101057.88
2022-10-13T08:24:09.399Z,101056.72
2022-10-13T08:26:36.251Z,101057.59
2022-10-13T08:29:20.130Z,101064.50
2022-10-13T08:34:16.600Z,101068.78
2022-10-13T08:36:44.173Z,101086.44
2022-10-13T08:39:11.252Z,101081.94
2022-10-13T08:41:40.931Z,101079.38
2022-10-13T08:47:24.076Z,101086.34
2022-10-13T08:49:53.508Z,101090.72
2022-10-13T08:52:30.335Z,101085.56
2022-10-13T08:54:58.659Z,101084.66
2022-10-13T08:57:25.719Z,101092.59
2022-10-13T08:59:53.501Z,101093.50
2022-10-13T09:02:30.087Z,101082.94
2022-10-13T09:04:59.207Z,101083.88
2022-10-13T09:07:29.923Z,101076.59
2022-10-13T09:09:57.116Z,101076.41
2022-10-13T09:12:25.527Z,101083.41
2022-10-13T09:15:10.414Z,101076.25
2022-10-13T09:17:39.947Z,101077.97
2022-10-13T09:20:27.905Z,101067.16
2022-10-13T09:23:14.638Z,101056.44
2022-10-13T09:25:52.300Z,101055.50
2022-10-13T09:28:33.536Z,101053.72
2022-10-13T09:31:10.284Z,101037.84
2022-10-13T09:33:40.318Z,101036.91
2022-10-13T09:36:13.724Z,101039.53
2022-10-13T09:38:43.265Z,101040.50
2022-10-13T09:41:10.112Z,101040.31
2022-10-13T09:43:38.484Z,101043.75
2022-10-13T09:46:32.203Z,101033.94
2022-10-13T09:49:38.041Z,101026.88
2022-10-13T09:52:14.130Z,101033.84
2022-10-13T09:54:41.268Z,101032.06
2022-10-13T09:57:17.940Z,101026.88
2022-10-13T10:00:04.675Z,101030.28
2022-10-13T10:02:41.277Z,101029.28
2022-10-13T10:05:16.198Z,101031.00
2022-10-13T10:07:43.378Z,101031.81
2022-10-13T10:10:27.205Z,101036.28
2022-10-13T10:12:54.838Z,101021.25
2022-10-13T10:15:28.760Z,101020.25
2022-10-13T10:18:08.228Z,101018.38
2022-10-13T10:20:47.599Z,101017.38
2022-10-13T10:23:38.184Z,101024.59
2022-10-13T10:26:32.717Z,101017.94
2022-10-13T10:29:05.872Z,101004.09
2022-10-13T10:31:53.818Z,100998.84
2022-10-13T10:34:45.632Z,100993.41
2022-10-13T10:37:55.082Z,100981.50
2022-10-13T10:40:35.393Z,100973.16
2022-10-13T10:43:11.327Z,100970.25
2022-10-13T10:45:40.013Z,100955.94
2022-10-13T10:48:23.954Z,100955.78
2022-10-13T10:50:54.343Z,100959.09
2022-10-13T10:53:24.071Z,100947.59
2022-10-13T10:56:03.286Z,100941.16
2022-10-13T10:58:33.347Z,100925.38
2022-10-13T11:01:14.431Z,100941.97
2022-10-13T11:03:55.122Z,100930.34
2022-10-13T11:06:24.752Z,100916.16
2022-10-13T11:08:55.786Z,100909.94
2022-10-13T11:11:26.603Z,100911.66
2022-10-13T11:14:07.863Z,100900.13
2022-10-13T11:16:42.045Z,100900.13
2022-10-13T11:19:09.087Z,100895.59
2022-10-13T11:21:54.442Z,100882.34
2022-10-13T11:24:39.688Z,100884.81
2022-10-13T11:27:12.134Z,100869.91
2022-10-13T11:29:49.284Z,100867.31
2022-10-13T11:32:25.509Z,100857.41
2022-10-13T11:35:10.737Z,100860.94
2022-10-13T11:38:07.838Z,100861.00
2022-10-13T11:41:05.610Z,100864.59
2022-10-13T11:44:07.553Z,100865.63
2022-10-13T11:46:37.111Z,100853.31
2022-10-13T11:49:33.807Z,100855.97
2022-10-13T11:52:19.733Z,100855.09
2022-10-13T11:55:03.276Z,100842.03
2022-10-13T11:57:33.137Z,100847.28
2022-10-13T12:00:00.216Z,100844.53
2022-10-13T12:02:28.079Z,100842.72
2022-10-13T12:05:04.265Z,100845.28
2022-10-13T12:07:37.603Z,100846.84
2022-10-13T12:10:08.263Z,100845.91
2022-10-13T12:12:35.400Z,100843.25
2022-10-13T12:15:05.985Z,100831.81
2022-10-13T12:17:39.216Z,100845.72
2022-10-13T12:20:25.170Z,100840.16
2022-10-13T12:22:54.069Z,100825.22
2022-10-13T12:25:28.432Z,100828.72
2022-10-13T12:27:59.262Z,100836.50
2022-10-13T12:30:37.960Z,100831.97
2022-10-13T12:33:28.158Z,100839.72
2022-10-13T12:35:55.452Z,100845.78
2022-10-13T12:38:23.700Z,100838.53
2022-10-13T12:40:53.775Z,100833.16
2022-10-13T12:43:25.782Z,100830.34
2022-10-13T12:45:53.197Z,100826.66
2022-10-13T12:48:35.064Z,100815.03
2022-10-13T12:51:25.034Z,100813.16
2022-10-13T12:53:52.051Z,100810.59
2022-10-13T12:56:32.200Z,100807.84
2022-10-13T12:58:59.983Z,100802.38
2022-10-13T13:01:35.437Z,100810.31
2022-10-13T13:04:18.488Z,100800.75
2022-10-13T13:06:57.673Z,100811.47
2022-10-13T13:09:26.067Z,100806.34
2022-10-13T13:12:07.643Z,100797.47
2022-10-13T13:14:50.141Z,100798.97
2022-10-13T13:17:27.615Z,100798.97
2022-10-13T13:20:00.220Z,100779.50
2022-10-13T13:22:27.533Z,100774.03
2022-10-13T13:24:54.799Z,100769.38
2022-10-13T13:27:27.917Z,100761.25
2022-10-13T13:29:56.212Z,100748.00
2022-10-13T13:32:25.755Z,100752.38
2022-10-13T13:34:52.908Z,100745.47
2022-10-13T13:37:31.351Z,100742.81
2022-10-13T13:39:59.100Z,100746.38
2022-10-13T13:42:28.702Z,100740.06
2022-10-13T13:44:56.553Z,100725.78
2022-10-13T13:47:28.800Z,100724.84
2022-10-13T13:49:57.337Z,100729.19
2022-10-13T13:52:25.821Z,100724.66
2022-10-13T13:54:53.209Z,100716.72
2022-10-13T13:57:21.342Z,100722.75
2022-10-13T13:59:48.486Z,100726.16
2022-10-13T14:02:19.731Z,100720.78
2022-10-13T14:04:47.186Z,100711.03
2022-10-13T14:07:14.779Z,100703.06
2022-10-13T14:09:43.140Z,100703.06
2022-10-13T14:12:11.248Z,100699.66
2022-10-13T14:14:38.503Z,100682.09
2022-10-13T14:17:05.919Z,100685.66
2022-10-13T14:19:33.450Z,100686.59
2022-10-13T14:22:04.750Z,100680.38
2022-10-13T14:24:35.615Z,100678.47
2022-10-13T14:27:02.566Z,100662.50
2022-10-13T14:29:30.153Z,100665.16
2022-10-13T14:31:57.401Z,100659.06
2022-10-13T14:34:24.485Z,100652.94
2022-10-13T14:36:51.628Z,100656.53
2022-10-13T14:39:18.865Z,100639.75
2022-10-13T14:41:45.892Z,100647.63
2022-10-13T14:44:14.376Z,100638.03
2022-10-13T14:46:42.077Z,100645.91
2022-10-13T14:49:11.243Z,100647.63
2022-10-13T14:51:38.292Z,100651.88
2022-10-13T14:54:07.277Z,100650.84
2022-10-13T14:56:34.786Z,100644.03
2022-10-13T14:59:04.603Z,100658.03
2022-10-13T15:01:33.676Z,100649.13
2022-10-13T15:04:02.203Z,100639.56
2022-10-13T15:06:29.682Z,100635.13
2022-10-13T15:08:57.566Z,100641.28
2022-10-13T15:11:25.610Z,100635.69
2022-10-13T15:13:52.994Z,100634.38
2022-10-13T15:16:32.933Z,100626.16
2022-10-13T15:19:00.160Z,100616.38
2022-10-13T15:21:27.257Z,100610.88
2022-10-13T15:23:54.195Z,100609.84
2022-10-13T15:26:21.598Z,100596.50
2022-10-13T15:28:51.830Z,100601.59
2022-10-13T15:31:20.540Z,100596.09
2022-10-13T15:33:51.925Z,100593.25
2022-10-13T15:36:20.554Z,100593.91
2022-10-13T15:38:47.651Z,100593.59
2022-10-13T15:41:15.168Z,100585.66
2022-10-13T15:43:42.187Z,100583.84
2022-10-13T15:46:13.156Z,100587.16
2022-10-13T15:48:40.473Z,100571.16
2022-10-13T15:51:15.959Z,100562.13
2022-10-13T15:53:43.104Z,100557.59
2022-10-13T15:56:10.109Z,100561.75
2022-10-13T15:58:37.327Z,100553.78
2022-10-13T16:01:12.342Z,100549.44
2022-10-13T16:03:39.513Z,100553.06
2022-10-13T16:06:08.325Z,100548.69
2022-10-13T16:08:40.055Z,100546.16
2022-10-13T16:11:12.949Z,100539.78
2022-10-13T16:13:40.970Z,100535.22
2022-10-13T16:16:08.480Z,100544.66
2022-10-13T16:18:37.867Z,100535.56
2022-10-13T16:21:31.429Z,100544.09
2022-10-13T16:23:59.657Z,100548.81
2022-10-13T16:26:27.272Z,100545.00
2022-10-13T16:28:56.027Z,100537.56
2022-10-13T16:31:23.122Z,100535.47
2022-10-13T16:33:50.019Z,100544.81
2022-10-13T16:36:19.114Z,100534.00
2022-10-13T16:38:47.205Z,100539.97
2022-10-13T16:41:17.312Z,100529.34
2022-10-13T16:43:45.399Z,100529.75
2022-10-13T16:46:14.461Z,100524.03
2022-10-13T16:48:42.900Z,100515.56
2022-10-13T16:51:13.447Z,100518.72
2022-10-13T16:53:40.511Z,100520.25
2022-10-13T16:56:08.524Z,100514.28
2022-10-13T16:58:35.596Z,100517.25
2022-10-13T17:01:11.630Z,100519.91
2022-10-13T17:03:39.795Z,100520.09
2022-10-13T17:06:07.275Z,100516.31
2022-10-13T17:08:34.554Z,100512.25
2022-10-13T17:11:01.495Z,100516.28
2022-10-13T17:13:28.624Z,100521.25
2022-10-13T17:15:57.282Z,100520.78
2022-10-13T17:18:26.563Z,100520.44
2022-10-13T17:20:55.325Z,100525.41
2022-10-13T17:23:23.489Z,100513.72
2022-10-13T17:25:51.951Z,100522.22
2022-10-13T17:28:19.706Z,100518.47
2022-10-13T17:31:00.674Z,100521.03
2022-10-13T17:33:29.300Z,100514.03
2022-10-13T17:36:05.288Z,100505.31
2022-10-13T17:38:32.712Z,100499.88
2022-10-13T17:41:01.741Z,100503.50
2022-10-13T17:43:29.582Z,100499.78
2022-10-13T17:46:12.122Z,100502.66
2022-10-13T17:48:44.614Z,100502.22
2022-10-13T17:51:14.973Z,100509.97
2022-10-13T17:53:43.756Z,100495.50
2022-10-13T17:56:16.697Z,100492.19
2022-10-13T17:58:45.068Z,100489.31
2022-10-13T18:01:15.023Z,100488.09
2022-10-13T18:03:50.538Z,100489.03
2022-10-13T18:06:18.337Z,100489.16
2022-10-13T18:08:46.178Z,100493.84
2022-10-13T18:11:16.590Z,100484.53
2022-10-13T18:13:44.931Z,100491.31
2022-10-13T18:16:15.420Z,100494.00
2022-10-13T18:18:46.458Z,100488.22
2022-10-13T18:21:15.942Z,100483.22
2022-10-13T18:23:43.957Z,100484.47
2022-10-13T18:26:13.393Z,100484.56
2022-10-13T18:28:43.788Z,100483.63
2022-10-13T18:31:18.592Z,100465.72
2022-10-13T18:33:46.247Z,100471.06
2022-10-13T18:36:20.068Z,100460.19
2022-10-13T18:38:48.246Z,100457.41
2022-10-13T18:41:16.746Z,100461.66
2022-10-13T18:43:43.736Z,100453.56
2022-10-13T18:46:10.785Z,100456.09
2022-10-13T18:48:37.726Z,100453.34
2022-10-13T18:51:06.998Z,100449.69
2022-10-13T18:53:37.167Z,100451.25
2022-10-13T18:56:13.714Z,100442.13
2022-10-13T18:58:41.277Z,100447.22
2022-10-13T19:01:11.499Z,100434.16
2022-10-13T19:03:40.510Z,100433.50
2022-10-13T19:06:10.686Z,100431.50
2022-10-13T19:08:37.986Z,100423.69
2022-10-13T19:11:16.722Z,100421.03
2022-10-13T19:13:45.356Z,100420.19
2022-10-13T19:16:14.229Z,100418.59
2022-10-13T19:18:43.556Z,100416.94
2022-10-13T19:21:12.649Z,100414.28
2022-10-13T19:23:41.056Z,100411.34
2022-10-13T19:26:14.962Z,100410.63
2022-10-13T19:28:43.956Z,100403.50
2022-10-13T19:31:14.417Z,100407.59
2022-10-13T19:33:45.693Z,100407.94
2022-10-13T19:36:26.884Z,100406.34
2022-10-13T19:38:54.518Z,100401.25
2022-10-13T19:41:22.967Z,100403.59
2022-10-13T19:43:50.990Z,100400.06
2022-10-13T19:46:18.841Z,100396.97
2022-10-13T19:48:46.736Z,100399.50
2022-10-13T19:51:19.614Z,100395.03
2022-10-13T19:53:47.043Z,100394.16
2022-10-13T19:56:24.292Z,100388.84
2022-10-13T19:58:52.544Z,100389.06
2022-10-13T20:01:21.969Z,100378.66
2022-10-13T20:03:54.374Z,100387.13
2022-10-13T20:06:25.212Z,100384.72
2022-10-13T20:08:52.517Z,100385.88
2022-10-13T20:11:24.039Z,100381.06
2022-10-13T20:13:53.733Z,100376.06
2022-10-13T20:16:24.093Z,100374.47
2022-10-13T20:19:01.373Z,100381.59
2022-10-13T20:21:29.332Z,100374.97
2022-10-13T20:23:57.784Z,100371.44
2022-10-13T20:26:29.727Z,100374.44
2022-10-13T20:28:58.886Z,100369.09
2022-10-13T20:31:28.032Z,100362.56
2022-10-13T20:33:59.380Z,100364.00
2022-10-13T20:36:29.281Z,100359.13
2022-10-13T20:38:58.483Z,100357.19
2022-10-13T20:41:29.838Z,100353.81
2022-10-13T20:44:01.590Z,100353.31
2022-10-13T20:46:30.994Z,100347.59
2022-10-13T20:49:15.299Z,100339.97
2022-10-13T20:51:43.419Z,100335.91
2022-10-13T20:54:12.577Z,100332.75
2022-10-13T20:56:40.426Z,100335.63
2022-10-13T20:59:10.557Z,100337.69
2022-10-13T21:01:38.549Z,100338.97
2022-10-13T21:04:06.145Z,100336.53
2022-10-13T21:06:34.231Z,100329.84
2022-10-13T21:09:02.068Z,100322.09
2022-10-13T21:11:29.120Z,100321.59
2022-10-13T21:13:57.802Z,100314.78
2022-10-13T21:16:30.122Z,100319.38
2022-10-13T21:18:58.455Z,100310.78
2022-10-13T21:21:33.551Z,100305.06
2022-10-13T21:24:04.098Z,100302.63
2022-10-13T21:26:32.556Z,100294.88
2022-10-13T21:29:00.060Z,100288.00
2022-10-13T21:31:28.420Z,100290.78
2022-10-13T21:33:56.833Z,100291.00
2022-10-13T21:36:29.601Z,100296.72
2022-10-13T21:38:59.495Z,100293.34
2022-10-13T21:41:28.103Z,100288.97
2022-10-13T21:43:55.771Z,100286.53
2022-10-13T21:46:25.536Z,100287.72
2022-10-13T21:48:57.118Z,100282.50
2022-10-13T21:51:29.846Z,100281.91
2022-10-13T21:53:59.804Z,100276.69
2022-10-13T21:56:27.723Z,100275.09
2022-10-13T21:58:55.535Z,100269.28
2022-10-13T22:01:23.154Z,100261.31
2022-10-13T22:03:54.016Z,100263.25
2022-10-13T22:06:21.344Z,100250.28
2022-10-13T22:08:50.934Z,100242.41
2022-10-13T22:11:19.150Z,100240.81
2022-10-13T22:13:46.901Z,100239.38
2022-10-13T22:16:17.541Z,100241.16
2022-10-13T22:18:44.926Z,100239.66
2022-10-13T22:21:15.417Z,100240.53
2022-10-13T22:23:43.016Z,100245.94
2022-10-13T22:26:10.358Z,100242.66
2022-10-13T22:28:38.310Z,100225.88
2022-10-13T22:31:07.042Z,100235.75
2022-10-13T22:33:35.736Z,100239.59
2022-10-13T22:36:12.030Z,100242.97
2022-10-13T22:38:39.014Z,100233.53
2022-10-13T22:41:06.965Z,100240.66
2022-10-13T22:43:34.429Z,100234.59
2022-10-13T22:46:02.312Z,100233.13
2022-10-13T22:48:29.603Z,100225.16
2022-10-13T22:50:56.848Z,100231.53
2022-10-13T22:53:23.928Z,100227.91
2022-10-13T22:55:51.018Z,100223.59
2022-10-13T22:58:18.011Z,100217.53
2022-10-13T23:00:44.871Z,100226.31
2022-10-13T23:03:14.592Z,100205.97
2022-10-13T23:05:42.839Z,100194.63
2022-10-13T23:08:11.400Z,100187.00
2022-10-13T23:10:38.389Z,100170.25
2022-10-13T23:13:05.872Z,100169.53
2022-10-13T23:15:32.932Z,100175.75
2022-10-13T23:17:59.814Z,100168.66
2022-10-13T23:20:26.697Z,100167.09
2022-10-13T23:22:53.570Z,100162.94
2022-10-13T23:25:20.426Z,100154.97
2022-10-13T23:27:47.238Z,100156.69
2022-10-13T23:30:14.153Z,100157.84
2022-10-13T23:32:41.031Z,100167.50
2022-10-13T23:35:08.153Z,100155.41
2022-10-13T23:37:34.988Z,100154.47
2022-10-13T23:40:02.008Z,100143.78
2022-10-13T23:42:28.914Z,100142.91
2022-10-13T23:44:55.760Z,100140.56
2022-10-13T23:47:23.094Z,100139.75
2022-10-13T23:49:50.283Z,100139.94
2022-10-13T23:52:19.538Z,100132.09
2022-10-13T23:54:46.412Z,100139.94
2022-10-13T23:57:13.324Z,100123.41
2022-10-13T23:59:40.225Z,100128.06
